MV Evnia — 5BJG3 — position and weather

sailwx.info

Track history (hours):
 
Tides and Currents Weather Stations Pressure Air Temp Water Temp Dewpoint Dewpoint Depression Visibility Wind Speed Wind Dir Waves Ship Positions

MV Evnia

Last reported at 2014-Dec-17 05:06 UTC. Time now 2014-Dec-22 11:19 UTC.
Position S 24°09' W 046°23'.

Length 190 m; draft 6.2 m.

Type: Cargo ship. MMSI: 209279000.

Date/timePositionNaut miles runAvg speedWind from/ knotsBaromVisibWave heightAir tempDewpointWater temp
2014-Dec-17 05:06S 24°09' W 046°23'3 5.6
2014-Dec-17 04:32S 24°06' W 046°23'5 4.7
2014-Dec-17 03:33S 24°01' W 046°21'4 4.2
2014-Dec-17 02:33S 23°58' W 046°18'2 1.6
2014-Dec-17 01:27S 23°57' W 046°19'0 0.0
2014-Dec-17 00:33S 23°57' W 046°19'0 0.0
2014-Dec-16 23:33S 23°57' W 046°19'0 0.0
2014-Dec-16 22:33S 23°57' W 046°19'0 0.0
2014-Dec-16 21:33S 23°57' W 046°19'0 0.0
2014-Dec-16 20:33S 23°57' W 046°19'0 0.0
2014-Dec-16 19:33S 23°57' W 046°19'0 0.0
2014-Dec-16 18:33S 23°57' W 046°19'0 0.0
2014-Dec-16 17:33S 23°57' W 046°19'0 0.0
2014-Dec-16 16:21S 23°57' W 046°19'0 0.0
2014-Dec-16 15:03S 23°57' W 046°19'0 0.0
2014-Dec-16 14:33S 23°57' W 046°19'0 0.0
2014-Dec-16 13:33S 23°57' W 046°19'0 0.0
2014-Dec-16 12:30S 23°57' W 046°19'0 0.0
2014-Dec-16 11:27S 23°57' W 046°19'0 0.0
2014-Dec-16 10:25S 23°57' W 046°19'0 0.0
2014-Dec-16 09:31S 23°57' W 046°19'0 0.0
2014-Dec-16 08:25S 23°57' W 046°19'0 0.0
2014-Dec-16 07:31S 23°57' W 046°19'0 0.0
2014-Dec-16 06:31S 23°57' W 046°19'0 0.0
2014-Dec-16 05:28S 23°57' W 046°19'0 0.0
2014-Dec-16 04:06S 23°57' W 046°19'0 0.0
2014-Dec-16 03:30S 23°57' W 046°19'0 0.0
2014-Dec-16 02:18S 23°57' W 046°19'0 0.0
2014-Dec-16 01:06S 23°57' W 046°19'0 0.0
2014-Dec-15 23:31S 23°57' W 046°19'0 0.0
2014-Dec-15 22:32S 23°57' W 046°19'0 0.0
2014-Dec-15 21:29S 23°57' W 046°19'0 0.0
2014-Dec-15 20:29S 23°57' W 046°19'0 0.0
2014-Dec-15 19:29S 23°57' W 046°19'0 0.0
2014-Dec-15 18:29S 23°57' W 046°19'0 0.0
2014-Dec-15 17:23S 23°57' W 046°19'0 0.0
2014-Dec-15 16:29S 23°57' W 046°19'0 0.0
2014-Dec-15 15:29S 23°57' W 046°19'0 0.0
2014-Dec-15 14:29S 23°57' W 046°19'0 0.0
2014-Dec-15 13:29S 23°57' W 046°19'0 0.0
2014-Dec-15 12:29S 23°57' W 046°19'0 0.0
2014-Dec-15 11:29S 23°57' W 046°19'0 0.0
2014-Dec-15 10:29S 23°57' W 046°19'0 0.0
2014-Dec-15 09:29S 23°57' W 046°19'0 0.0
2014-Dec-15 08:31S 23°57' W 046°19'0 0.0
2014-Dec-15 07:28S 23°57' W 046°19'3 2.8
2014-Dec-15 06:33S 23°59' W 046°17'5 5.4
2014-Dec-15 05:33S 24°04' W 046°18'6 5.8
2014-Dec-15 04:32S 24°08' W 046°12'0 0.0
2014-Dec-15 02:34S 24°08' W 046°12'0 0.0
2014-Dec-14 07:27S 24°08' W 046°12'2 0.2
2014-Dec-13 22:33S 24°09' W 046°10'  
Track history (hours):
 
Tides and Currents Weather Stations Pressure Air Temp Water Temp Dewpoint Dewpoint Depression Visibility Wind Speed Wind Dir Waves Ship Positions

MV Evnia

Last reported at 2014-Dec-17 05:06 UTC. Time now 2014-Dec-22 11:19 UTC.
Position S 24°09' W 046°23'.

Length 190 m; draft 6.2 m.

Type: Cargo ship. MMSI: 209279000.

Date/timePositionNaut miles runAvg speedWind from/ knotsBaromVisibWave heightAir tempDewpointWater temp
2014-Dec-17 05:06S 24°09' W 046°23'3 5.6
2014-Dec-17 04:32S 24°06' W 046°23'5 4.7
2014-Dec-17 03:33S 24°01' W 046°21'4 4.2
2014-Dec-17 02:33S 23°58' W 046°18'2 1.6
2014-Dec-17 01:27S 23°57' W 046°19'0 0.0
2014-Dec-17 00:33S 23°57' W 046°19'0 0.0
2014-Dec-16 23:33S 23°57' W 046°19'0 0.0
2014-Dec-16 22:33S 23°57' W 046°19'0 0.0
2014-Dec-16 21:33S 23°57' W 046°19'0 0.0
2014-Dec-16 20:33S 23°57' W 046°19'0 0.0
2014-Dec-16 19:33S 23°57' W 046°19'0 0.0
2014-Dec-16 18:33S 23°57' W 046°19'0 0.0
2014-Dec-16 17:33S 23°57' W 046°19'0 0.0
2014-Dec-16 16:21S 23°57' W 046°19'0 0.0
2014-Dec-16 15:03S 23°57' W 046°19'0 0.0
2014-Dec-16 14:33S 23°57' W 046°19'0 0.0
2014-Dec-16 13:33S 23°57' W 046°19'0 0.0
2014-Dec-16 12:30S 23°57' W 046°19'0 0.0
2014-Dec-16 11:27S 23°57' W 046°19'0 0.0
2014-Dec-16 10:25S 23°57' W 046°19'0 0.0
2014-Dec-16 09:31S 23°57' W 046°19'0 0.0
2014-Dec-16 08:25S 23°57' W 046°19'0 0.0
2014-Dec-16 07:31S 23°57' W 046°19'0 0.0
2014-Dec-16 06:31S 23°57' W 046°19'0 0.0
2014-Dec-16 05:28S 23°57' W 046°19'0 0.0
2014-Dec-16 04:06S 23°57' W 046°19'0 0.0
2014-Dec-16 03:30S 23°57' W 046°19'0 0.0
2014-Dec-16 02:18S 23°57' W 046°19'0 0.0
2014-Dec-16 01:06S 23°57' W 046°19'0 0.0
2014-Dec-15 23:31S 23°57' W 046°19'0 0.0
2014-Dec-15 22:32S 23°57' W 046°19'0 0.0
2014-Dec-15 21:29S 23°57' W 046°19'0 0.0
2014-Dec-15 20:29S 23°57' W 046°19'0 0.0
2014-Dec-15 19:29S 23°57' W 046°19'0 0.0
2014-Dec-15 18:29S 23°57' W 046°19'0 0.0
2014-Dec-15 17:23S 23°57' W 046°19'0 0.0
2014-Dec-15 16:29S 23°57' W 046°19'0 0.0
2014-Dec-15 15:29S 23°57' W 046°19'0 0.0
2014-Dec-15 14:29S 23°57' W 046°19'0 0.0
2014-Dec-15 13:29S 23°57' W 046°19'0 0.0
2014-Dec-15 12:29S 23°57' W 046°19'0 0.0
2014-Dec-15 11:29S 23°57' W 046°19'0 0.0
2014-Dec-15 10:29S 23°57' W 046°19'0 0.0
2014-Dec-15 09:29S 23°57' W 046°19'0 0.0
2014-Dec-15 08:31S 23°57' W 046°19'0 0.0
2014-Dec-15 07:28S 23°57' W 046°19'3 2.8
2014-Dec-15 06:33S 23°59' W 046°17'5 5.4
2014-Dec-15 05:33S 24°04' W 046°18'6 5.8
2014-Dec-15 04:32S 24°08' W 046°12'0 0.0
2014-Dec-15 02:34S 24°08' W 046°12'0 0.0
2014-Dec-14 07:27S 24°08' W 046°12'2 0.2
2014-Dec-13 22:33S 24°09' W 046°10'  

Dump ship's entire track history